createdAt,value
2023-05-05T00:01:01.991Z,100.00
2023-05-05T00:03:32.146Z,100.00
2023-05-05T00:05:59.946Z,100.00
2023-05-05T00:08:27.934Z,91.12
2023-05-05T00:10:56.129Z,88.05
2023-05-05T00:13:25.433Z,90.08
2023-05-05T00:15:54.030Z,97.40
2023-05-05T00:18:21.721Z,98.62
2023-05-05T00:20:49.570Z,92.22
2023-05-05T00:23:18.835Z,83.32
2023-05-05T00:25:46.643Z,76.46
2023-05-05T00:28:14.415Z,72.31
2023-05-05T00:30:43.771Z,72.89
2023-05-05T00:33:11.406Z,75.96
2023-05-05T00:35:39.215Z,100.00
2023-05-05T00:38:07.010Z,100.00
2023-05-05T00:40:34.832Z,100.00
2023-05-05T00:43:02.610Z,100.00
2023-05-05T00:45:30.770Z,100.00
2023-05-05T00:48:01.230Z,100.00
2023-05-05T00:50:30.424Z,100.00
2023-05-05T00:53:01.529Z,100.00
2023-05-05T00:55:29.935Z,100.00
2023-05-05T00:57:58.410Z,100.00
2023-05-05T01:00:27.433Z,100.00
2023-05-05T01:02:55.527Z,100.00
2023-05-05T01:05:27.710Z,100.00
2023-05-05T01:08:16.120Z,100.00
2023-05-05T01:10:52.719Z,100.00
2023-05-05T01:13:32.090Z,100.00
2023-05-05T01:16:07.064Z,100.00
2023-05-05T01:18:44.897Z,100.00
2023-05-05T01:21:22.455Z,100.00
2023-05-05T01:24:21.844Z,100.00
2023-05-05T01:27:05.516Z,100.00
2023-05-05T01:29:57.688Z,100.00
2023-05-05T01:32:29.804Z,100.00
2023-05-05T01:35:02.005Z,100.00
2023-05-05T01:37:45.903Z,100.00
2023-05-05T01:40:18.092Z,100.00
2023-05-05T01:42:48.292Z,100.00
2023-05-05T01:45:19.973Z,100.00
2023-05-05T01:47:49.148Z,100.00
2023-05-05T01:50:19.356Z,100.00
2023-05-05T01:52:48.436Z,100.00
2023-05-05T01:55:19.499Z,100.00
2023-05-05T01:57:49.960Z,100.00
2023-05-05T02:00:19.417Z,100.00
2023-05-05T02:02:50.552Z,100.00
2023-05-05T02:05:19.916Z,100.00
2023-05-05T02:07:50.083Z,100.00
2023-05-05T02:10:18.366Z,100.00
2023-05-05T02:12:48.553Z,100.00
2023-05-05T02:15:18.023Z,100.00
2023-05-05T02:17:47.628Z,100.00
2023-05-05T02:20:20.600Z,100.00
2023-05-05T02:22:49.016Z,100.00
2023-05-05T02:25:18.215Z,100.00
2023-05-05T02:27:49.221Z,100.00
2023-05-05T02:30:20.263Z,100.00
2023-05-05T02:32:53.721Z,100.00
2023-05-05T02:35:29.298Z,100.00
2023-05-05T02:38:01.602Z,100.00
2023-05-05T02:40:33.916Z,100.00
2023-05-05T02:43:07.782Z,100.00
2023-05-05T02:45:35.784Z,100.00
2023-05-05T02:48:04.826Z,100.00
2023-05-05T02:50:34.121Z,100.00
2023-05-05T02:53:02.365Z,100.00
2023-05-05T02:55:39.094Z,100.00
2023-05-05T02:58:13.987Z,100.00
2023-05-05T03:00:50.409Z,100.00
2023-05-05T03:03:25.875Z,100.00
2023-05-05T03:06:05.120Z,100.00
2023-05-05T03:08:42.640Z,100.00
2023-05-05T03:11:19.235Z,100.00
2023-05-05T03:13:55.191Z,100.00
2023-05-05T03:16:26.205Z,100.00
2023-05-05T03:18:55.220Z,100.00
2023-05-05T03:21:24.894Z,100.00
2023-05-05T03:23:52.605Z,100.00
2023-05-05T03:26:20.260Z,100.00
2023-05-05T03:28:49.252Z,100.00
2023-05-05T03:31:18.646Z,100.00
2023-05-05T03:33:46.353Z,100.00
2023-05-05T03:36:15.221Z,100.00
2023-05-05T03:38:44.184Z,100.00
2023-05-05T03:41:12.367Z,100.00
2023-05-05T03:43:40.015Z,100.00
2023-05-05T03:46:07.708Z,100.00
2023-05-05T03:48:35.521Z,100.00
2023-05-05T03:51:03.417Z,100.00
2023-05-05T03:53:31.283Z,100.00
2023-05-05T03:56:01.002Z,100.00
2023-05-05T03:58:28.870Z,100.00
2023-05-05T04:00:56.783Z,100.00
2023-05-05T04:03:24.769Z,100.00
2023-05-05T04:05:52.621Z,100.00
2023-05-05T04:08:20.263Z,100.00
2023-05-05T04:10:48.454Z,100.00
2023-05-05T04:13:17.537Z,100.00
2023-05-05T04:15:45.882Z,100.00
2023-05-05T04:18:14.024Z,100.00
2023-05-05T04:20:42.436Z,100.00
2023-05-05T04:23:10.015Z,100.00
2023-05-05T04:25:37.654Z,100.00
2023-05-05T04:28:05.496Z,100.00
2023-05-05T04:30:41.824Z,100.00
2023-05-05T04:33:09.950Z,100.00
2023-05-05T04:35:37.601Z,100.00
2023-05-05T04:38:05.221Z,100.00
2023-05-05T04:40:33.044Z,100.00
2023-05-05T04:43:00.648Z,100.00
2023-05-05T04:45:30.590Z,100.00
2023-05-05T04:47:59.736Z,100.00
2023-05-05T04:50:27.682Z,100.00
2023-05-05T04:52:55.340Z,100.00
2023-05-05T04:55:23.036Z,100.00
2023-05-05T04:57:50.623Z,100.00
2023-05-05T05:00:18.532Z,100.00
2023-05-05T05:02:46.122Z,100.00
2023-05-05T05:05:15.302Z,100.00
2023-05-05T05:07:42.826Z,100.00
2023-05-05T05:10:10.925Z,100.00
2023-05-05T05:12:38.999Z,100.00
2023-05-05T05:15:08.638Z,100.00
2023-05-05T05:17:36.266Z,100.00
2023-05-05T05:20:04.301Z,100.00
2023-05-05T05:22:33.403Z,100.00
2023-05-05T05:25:00.961Z,100.00
2023-05-05T05:27:28.644Z,100.00
2023-05-05T05:29:56.422Z,100.00
2023-05-05T05:32:24.120Z,100.00
2023-05-05T05:34:51.856Z,100.00
2023-05-05T05:37:19.549Z,100.00
2023-05-05T05:39:52.525Z,100.00
2023-05-05T05:42:20.438Z,100.00
2023-05-05T05:44:48.147Z,100.00
2023-05-05T05:47:15.760Z,100.00
2023-05-05T05:49:43.444Z,100.00
2023-05-05T05:52:11.014Z,100.00
2023-05-05T05:54:38.557Z,100.00
2023-05-05T05:57:07.753Z,100.00
2023-05-05T05:59:35.607Z,100.00
2023-05-05T06:02:03.322Z,100.00
2023-05-05T06:04:31.315Z,100.00
2023-05-05T06:06:59.202Z,100.00
2023-05-05T06:09:29.254Z,100.00
2023-05-05T06:11:56.818Z,100.00
2023-05-05T06:14:28.450Z,100.00
2023-05-05T06:16:56.093Z,100.00
2023-05-05T06:19:24.685Z,100.00
2023-05-05T06:21:52.614Z,100.00
2023-05-05T06:24:20.388Z,100.00
2023-05-05T06:26:48.098Z,100.00
2023-05-05T06:29:15.826Z,100.00
2023-05-05T06:31:45.066Z,100.00
2023-05-05T06:34:12.717Z,100.00
2023-05-05T06:36:40.426Z,100.00
2023-05-05T06:39:08.232Z,100.00
2023-05-05T06:41:36.000Z,100.00
2023-05-05T06:44:03.814Z,100.00
2023-05-05T06:46:31.631Z,100.00
2023-05-05T06:49:00.641Z,100.00
2023-05-05T06:51:28.534Z,100.00
2023-05-05T06:53:56.205Z,100.00
2023-05-05T06:56:23.901Z,100.00
2023-05-05T06:58:51.760Z,100.00
2023-05-05T07:01:19.519Z,100.00
2023-05-05T07:03:47.350Z,100.00
2023-05-05T07:06:16.397Z,100.00
2023-05-05T07:08:44.081Z,100.00
2023-05-05T07:11:11.620Z,100.00
2023-05-05T07:13:39.167Z,100.00
2023-05-05T07:16:06.991Z,100.00
2023-05-05T07:18:35.632Z,100.00
2023-05-05T07:21:03.690Z,100.00
2023-05-05T07:23:32.734Z,100.00
2023-05-05T07:26:00.766Z,95.05
2023-05-05T07:28:28.451Z,75.10
2023-05-05T07:30:56.219Z,98.21
2023-05-05T07:33:23.998Z,77.70
2023-05-05T07:35:51.640Z,98.45
2023-05-05T07:38:19.461Z,100.00
2023-05-05T07:40:48.435Z,97.43
2023-05-05T07:43:16.210Z,100.00
2023-05-05T07:45:43.779Z,100.00
2023-05-05T07:48:11.758Z,94.33
2023-05-05T07:50:39.711Z,86.77
2023-05-05T07:53:14.340Z,82.71
2023-05-05T07:55:42.731Z,81.08
2023-05-05T07:58:11.774Z,92.77
2023-05-05T08:00:39.813Z,90.95
2023-05-05T08:03:10.695Z,81.96
2023-05-05T08:05:39.934Z,90.87
2023-05-05T08:08:08.077Z,100.00
2023-05-05T08:10:37.329Z,100.00
2023-05-05T08:13:06.494Z,100.00
2023-05-05T08:15:35.584Z,100.00
2023-05-05T08:18:03.410Z,100.00
2023-05-05T08:20:31.402Z,100.00
2023-05-05T08:22:59.052Z,100.00
2023-05-05T08:25:30.032Z,100.00
2023-05-05T08:27:57.713Z,100.00
2023-05-05T08:30:25.378Z,100.00
2023-05-05T08:32:54.791Z,100.00
2023-05-05T08:35:22.888Z,100.00
2023-05-05T08:37:50.927Z,100.00
2023-05-05T08:40:20.113Z,100.00
2023-05-05T08:42:48.437Z,100.00
2023-05-05T08:45:16.521Z,100.00
2023-05-05T08:47:44.451Z,100.00
2023-05-05T08:50:16.433Z,100.00
2023-05-05T08:52:53.798Z,100.00
2023-05-05T08:55:23.809Z,100.00
2023-05-05T08:57:55.093Z,100.00
2023-05-05T09:00:24.024Z,100.00
2023-05-05T09:02:56.156Z,100.00
2023-05-05T09:05:26.401Z,100.00
2023-05-05T09:07:54.118Z,100.00
2023-05-05T09:10:22.186Z,100.00
2023-05-05T09:12:49.912Z,100.00
2023-05-05T09:15:17.610Z,100.00
2023-05-05T09:17:45.577Z,94.72
2023-05-05T09:20:14.284Z,100.00
2023-05-05T09:22:45.899Z,89.42
2023-05-05T09:25:15.441Z,77.43
2023-05-05T09:27:45.502Z,92.19
2023-05-05T09:30:16.028Z,100.00
2023-05-05T09:32:48.119Z,100.00
2023-05-05T09:35:16.810Z,94.03
2023-05-05T09:37:45.935Z,84.90
2023-05-05T09:40:15.473Z,87.02
2023-05-05T09:42:43.863Z,84.10
2023-05-05T09:45:25.996Z,77.91
2023-05-05T09:47:59.047Z,81.15
2023-05-05T09:50:28.688Z,78.36
2023-05-05T09:52:59.576Z,78.82
2023-05-05T09:55:27.347Z,74.91
2023-05-05T09:57:55.118Z,74.29
2023-05-05T10:00:38.243Z,70.19
2023-05-05T10:03:05.984Z,73.63
2023-05-05T10:05:45.788Z,65.96
2023-05-05T10:08:17.491Z,64.96
2023-05-05T10:10:51.856Z,59.97
2023-05-05T10:13:21.583Z,62.05
2023-05-05T10:15:50.871Z,49.05
2023-05-05T10:18:21.475Z,55.25
2023-05-05T10:20:55.261Z,63.64
2023-05-05T10:23:31.686Z,67.25
2023-05-05T10:26:02.140Z,61.74
2023-05-05T10:28:33.654Z,66.42
2023-05-05T10:31:04.243Z,77.54
2023-05-05T10:33:47.634Z,100.00
2023-05-05T10:36:16.586Z,92.06
2023-05-05T10:38:46.612Z,100.00
2023-05-05T10:41:16.370Z,100.00
2023-05-05T10:43:45.625Z,100.00
2023-05-05T10:46:14.154Z,83.85
2023-05-05T10:48:50.840Z,100.00
2023-05-05T10:51:39.250Z,100.00
2023-05-05T10:54:22.993Z,100.00
2023-05-05T10:56:52.300Z,100.00
2023-05-05T10:59:44.787Z,96.72
2023-05-05T11:02:22.885Z,85.37
2023-05-05T11:05:08.032Z,94.31
2023-05-05T11:07:36.251Z,83.89
2023-05-05T11:10:07.950Z,82.76
2023-05-05T11:13:09.458Z,76.41
2023-05-05T11:15:38.014Z,71.75
2023-05-05T11:18:07.888Z,60.78
2023-05-05T11:21:13.629Z,52.32
2023-05-05T11:23:42.625Z,48.32
2023-05-05T11:26:13.335Z,42.81
2023-05-05T11:29:00.018Z,45.43
2023-05-05T11:31:28.456Z,41.63
2023-05-05T11:34:26.136Z,39.01
2023-05-05T11:36:57.669Z,48.10
2023-05-05T11:39:41.160Z,43.97
2023-05-05T11:42:24.400Z,48.18
2023-05-05T11:44:52.608Z,48.54
2023-05-05T11:47:32.915Z,50.59
2023-05-05T11:50:17.750Z,43.76
2023-05-05T11:52:45.705Z,39.57
2023-05-05T11:55:19.657Z,37.41
2023-05-05T11:57:48.685Z,39.72
2023-05-05T12:00:18.661Z,42.19
2023-05-05T12:02:46.663Z,41.95
2023-05-05T12:05:20.223Z,42.31
2023-05-05T12:07:48.136Z,47.77
2023-05-05T12:10:22.724Z,44.51
2023-05-05T12:12:55.083Z,44.52
2023-05-05T12:15:31.011Z,44.27
2023-05-05T12:18:01.478Z,46.50
2023-05-05T12:20:32.452Z,44.01
2023-05-05T12:23:01.939Z,42.43
2023-05-05T12:25:37.400Z,45.46
2023-05-05T12:28:07.912Z,46.42
2023-05-05T12:30:36.317Z,47.55
2023-05-05T12:33:06.705Z,49.94
2023-05-05T12:35:35.461Z,49.00
2023-05-05T12:38:04.391Z,45.82
2023-05-05T12:40:46.238Z,49.42
2023-05-05T12:43:29.172Z,45.48
2023-05-05T12:46:05.481Z,78.59
2023-05-05T12:48:36.356Z,100.00
2023-05-05T12:51:14.133Z,100.00
2023-05-05T12:53:42.336Z,100.00
2023-05-05T12:56:31.365Z,100.00
2023-05-05T12:59:01.022Z,100.00
2023-05-05T13:01:29.134Z,100.00
2023-05-05T13:04:11.065Z,100.00
2023-05-05T13:06:39.794Z,100.00
2023-05-05T13:09:07.523Z,100.00
2023-05-05T13:11:35.811Z,100.00
2023-05-05T13:14:06.684Z,100.00
2023-05-05T13:16:34.318Z,77.32
2023-05-05T13:19:02.051Z,71.59
2023-05-05T13:21:30.110Z,65.83
2023-05-05T13:24:05.056Z,73.26
2023-05-05T13:26:39.894Z,71.07
2023-05-05T13:29:09.983Z,70.72
2023-05-05T13:31:37.701Z,81.49
2023-05-05T13:34:07.569Z,81.37
2023-05-05T13:36:35.184Z,73.78
2023-05-05T13:39:03.216Z,75.29
2023-05-05T13:41:30.825Z,78.94
2023-05-05T13:43:58.498Z,70.85
2023-05-05T13:46:27.824Z,72.15
2023-05-05T13:48:56.894Z,66.13
2023-05-05T13:51:24.722Z,60.49
2023-05-05T13:53:54.630Z,51.58
2023-05-05T13:56:22.180Z,42.14
2023-05-05T13:58:51.293Z,40.05
2023-05-05T14:01:18.948Z,38.28
2023-05-05T14:03:48.099Z,38.03
2023-05-05T14:06:15.786Z,35.89
2023-05-05T14:08:43.532Z,48.61
2023-05-05T14:11:11.193Z,86.43
2023-05-05T14:13:39.135Z,100.00
2023-05-05T14:16:06.954Z,100.00
2023-05-05T14:18:34.816Z,100.00
2023-05-05T14:21:03.996Z,100.00
2023-05-05T14:23:31.695Z,82.04
2023-05-05T14:26:00.573Z,75.43
2023-05-05T14:28:29.211Z,63.69
2023-05-05T14:30:59.204Z,48.24
2023-05-05T14:33:26.762Z,40.99
2023-05-05T14:35:55.353Z,39.75
2023-05-05T14:38:24.451Z,45.63
2023-05-05T14:40:52.294Z,54.92
2023-05-05T14:43:20.055Z,62.46
2023-05-05T14:45:47.724Z,55.76
2023-05-05T14:48:15.364Z,54.02
2023-05-05T14:50:45.250Z,59.71
2023-05-05T14:53:15.189Z,52.06
2023-05-05T14:55:46.258Z,53.86
2023-05-05T14:58:13.883Z,56.21
2023-05-05T15:00:41.728Z,49.47
2023-05-05T15:03:09.369Z,42.82
2023-05-05T15:05:37.293Z,38.78
2023-05-05T15:08:05.373Z,44.60
2023-05-05T15:10:36.191Z,51.77
2023-05-05T15:13:05.331Z,48.42
2023-05-05T15:15:32.932Z,48.05
2023-05-05T15:18:00.558Z,44.51
2023-05-05T15:20:29.654Z,38.43
2023-05-05T15:22:57.677Z,39.21
2023-05-05T15:25:25.407Z,36.91
2023-05-05T15:27:53.033Z,34.74
2023-05-05T15:30:22.215Z,31.87
2023-05-05T15:32:49.853Z,31.79
2023-05-05T15:35:17.577Z,32.77
2023-05-05T15:37:45.438Z,33.42
2023-05-05T15:40:14.300Z,34.04
2023-05-05T15:42:42.240Z,33.66
2023-05-05T15:45:10.491Z,35.21
2023-05-05T15:47:39.666Z,34.74
2023-05-05T15:50:08.402Z,36.21
2023-05-05T15:52:36.102Z,36.60
2023-05-05T15:55:04.236Z,37.55
2023-05-05T15:57:33.034Z,54.82
2023-05-05T16:00:00.846Z,71.53
2023-05-05T16:02:28.573Z,71.41
2023-05-05T16:04:57.757Z,61.59
2023-05-05T16:07:25.626Z,52.09
2023-05-05T16:09:53.533Z,43.24
2023-05-05T16:12:21.277Z,41.86
2023-05-05T16:14:48.877Z,44.16
2023-05-05T16:17:17.546Z,41.17
2023-05-05T16:19:45.088Z,40.56
2023-05-05T16:22:14.390Z,41.59
2023-05-05T16:24:44.384Z,42.66
2023-05-05T16:27:11.989Z,41.82
2023-05-05T16:29:41.130Z,43.32
2023-05-05T16:32:09.876Z,42.01
2023-05-05T16:34:37.500Z,41.76
2023-05-05T16:37:05.111Z,48.39
2023-05-05T16:39:37.140Z,57.00
2023-05-05T16:42:06.024Z,59.38
2023-05-05T16:44:33.961Z,57.87
2023-05-05T16:47:01.769Z,62.40
2023-05-05T16:49:29.542Z,65.08
2023-05-05T16:51:57.482Z,67.60
2023-05-05T16:54:25.294Z,59.09
2023-05-05T16:56:56.493Z,54.98
2023-05-05T16:59:24.257Z,53.61
2023-05-05T17:01:52.006Z,53.98
2023-05-05T17:04:19.635Z,56.44
2023-05-05T17:06:47.134Z,57.78
2023-05-05T17:09:14.786Z,56.52
2023-05-05T17:11:42.416Z,56.41
2023-05-05T17:14:11.474Z,53.19
2023-05-05T17:16:40.245Z,54.33
2023-05-05T17:19:07.881Z,56.58
2023-05-05T17:21:35.544Z,56.90
2023-05-05T17:24:03.610Z,56.84
2023-05-05T17:26:32.939Z,56.87
2023-05-05T17:29:02.063Z,55.74
2023-05-05T17:31:31.056Z,54.40
2023-05-05T17:33:58.924Z,51.69
2023-05-05T17:36:26.564Z,52.99
2023-05-05T17:38:54.210Z,52.85
2023-05-05T17:41:21.901Z,51.51
2023-05-05T17:43:49.422Z,54.70
2023-05-05T17:46:17.286Z,55.17
2023-05-05T17:48:46.281Z,54.99
2023-05-05T17:51:14.241Z,52.84
2023-05-05T17:53:41.907Z,53.99
2023-05-05T17:56:09.567Z,54.90
2023-05-05T17:58:37.446Z,55.85
2023-05-05T18:01:05.047Z,57.63
2023-05-05T18:03:32.893Z,55.10
2023-05-05T18:06:02.410Z,75.82
2023-05-05T18:08:30.206Z,87.54
2023-05-05T18:10:58.419Z,86.98
2023-05-05T18:13:26.182Z,85.87
2023-05-05T18:15:53.939Z,92.94
2023-05-05T18:18:21.530Z,82.75
2023-05-05T18:20:49.214Z,85.82
2023-05-05T18:23:21.899Z,88.22
2023-05-05T18:25:49.503Z,100.00
2023-05-05T18:28:17.321Z,100.00
2023-05-05T18:30:44.887Z,100.00
2023-05-05T18:33:12.462Z,100.00
2023-05-05T18:35:40.098Z,100.00
2023-05-05T18:38:07.681Z,100.00
2023-05-05T18:40:36.771Z,100.00
2023-05-05T18:43:04.360Z,100.00
2023-05-05T18:45:31.890Z,94.46
2023-05-05T18:47:59.687Z,88.40
2023-05-05T18:50:27.501Z,83.93
2023-05-05T18:52:55.156Z,86.18
2023-05-05T18:55:23.213Z,79.61
2023-05-05T18:57:52.077Z,77.50
2023-05-05T19:00:20.259Z,89.83
2023-05-05T19:02:47.822Z,100.00
2023-05-05T19:05:15.477Z,100.00
2023-05-05T19:07:43.490Z,100.00
2023-05-05T19:10:11.467Z,100.00
2023-05-05T19:12:39.183Z,100.00
2023-05-05T19:15:09.097Z,100.00
2023-05-05T19:17:36.965Z,91.17
2023-05-05T19:20:05.550Z,100.00
2023-05-05T19:22:33.124Z,100.00
2023-05-05T19:25:00.672Z,100.00
2023-05-05T19:27:28.226Z,100.00
2023-05-05T19:29:55.932Z,100.00
2023-05-05T19:32:24.971Z,100.00
2023-05-05T19:34:52.619Z,100.00
2023-05-05T19:37:21.503Z,100.00
2023-05-05T19:39:49.761Z,100.00
2023-05-05T19:42:18.060Z,100.00
2023-05-05T19:44:45.811Z,100.00
2023-05-05T19:47:13.374Z,100.00
2023-05-05T19:49:42.427Z,100.00
2023-05-05T19:52:10.078Z,100.00
2023-05-05T19:54:39.395Z,100.00
2023-05-05T19:57:07.132Z,100.00
2023-05-05T19:59:35.904Z,100.00
2023-05-05T20:02:03.468Z,100.00
2023-05-05T20:04:31.054Z,100.00
2023-05-05T20:07:00.006Z,100.00
2023-05-05T20:09:27.712Z,100.00
2023-05-05T20:11:58.869Z,100.00
2023-05-05T20:14:27.933Z,100.00
2023-05-05T20:16:55.691Z,100.00
2023-05-05T20:19:23.290Z,100.00
2023-05-05T20:21:51.047Z,100.00
2023-05-05T20:24:20.144Z,100.00
2023-05-05T20:26:47.703Z,100.00
2023-05-05T20:29:15.428Z,100.00
2023-05-05T20:31:42.987Z,100.00
2023-05-05T20:34:10.688Z,100.00
2023-05-05T20:36:38.298Z,100.00
2023-05-05T20:39:06.596Z,100.00
2023-05-05T20:41:35.522Z,100.00
2023-05-05T20:44:03.066Z,100.00
2023-05-05T20:46:30.724Z,100.00
2023-05-05T20:48:58.436Z,100.00
2023-05-05T20:51:26.165Z,100.00
2023-05-05T20:53:53.783Z,100.00
2023-05-05T20:56:21.737Z,100.00
2023-05-05T20:58:50.960Z,100.00
2023-05-05T21:01:18.637Z,100.00
2023-05-05T21:03:46.179Z,100.00
2023-05-05T21:06:13.817Z,100.00
2023-05-05T21:08:41.350Z,100.00
2023-05-05T21:11:12.962Z,100.00
2023-05-05T21:13:40.577Z,100.00
2023-05-05T21:16:09.572Z,100.00
2023-05-05T21:18:37.110Z,100.00
2023-05-05T21:21:04.660Z,100.00
2023-05-05T21:23:32.331Z,100.00
2023-05-05T21:26:00.024Z,100.00
2023-05-05T21:28:27.848Z,100.00
2023-05-05T21:31:19.940Z,100.00
2023-05-05T21:33:44.455Z,100.00
2023-05-05T21:36:12.983Z,100.00
2023-05-05T21:38:40.650Z,100.00
2023-05-05T21:41:10.020Z,100.00
2023-05-05T21:43:37.832Z,100.00
2023-05-05T21:46:06.194Z,100.00
2023-05-05T21:48:33.852Z,100.00
2023-05-05T21:51:10.322Z,100.00
2023-05-05T21:53:37.888Z,100.00
2023-05-05T21:56:06.960Z,100.00
2023-05-05T21:58:34.578Z,100.00
2023-05-05T22:01:02.265Z,100.00
2023-05-05T22:03:30.150Z,100.00
2023-05-05T22:05:59.045Z,100.00
2023-05-05T22:08:28.142Z,100.00
2023-05-05T22:10:55.760Z,100.00
2023-05-05T22:13:23.553Z,100.00
2023-05-05T22:15:51.300Z,100.00
2023-05-05T22:18:19.002Z,100.00
2023-05-05T22:20:46.794Z,100.00
2023-05-05T22:23:15.202Z,100.00
2023-05-05T22:25:45.256Z,100.00
2023-05-05T22:28:12.869Z,100.00
2023-05-05T22:30:41.082Z,100.00
2023-05-05T22:33:09.283Z,100.00
2023-05-05T22:35:37.201Z,100.00
2023-05-05T22:38:05.176Z,100.00
2023-05-05T22:40:32.946Z,100.00
2023-05-05T22:43:01.940Z,100.00
2023-05-05T22:45:29.919Z,100.00
2023-05-05T22:47:57.575Z,100.00
2023-05-05T22:50:25.477Z,100.00
2023-05-05T22:52:55.368Z,100.00
2023-05-05T22:55:23.092Z,100.00
2023-05-05T22:57:50.744Z,100.00
2023-05-05T23:00:20.053Z,100.00
2023-05-05T23:02:47.647Z,100.00
2023-05-05T23:05:15.176Z,100.00
2023-05-05T23:07:42.798Z,100.00
2023-05-05T23:10:11.039Z,100.00
2023-05-05T23:12:38.653Z,100.00
2023-05-05T23:15:07.934Z,100.00
2023-05-05T23:17:37.148Z,100.00
2023-05-05T23:20:06.392Z,100.00
2023-05-05T23:22:34.194Z,100.00
2023-05-05T23:25:01.785Z,100.00
2023-05-05T23:27:29.511Z,100.00
2023-05-05T23:29:57.107Z,100.00
2023-05-05T23:32:24.776Z,100.00
2023-05-05T23:34:53.769Z,100.00
2023-05-05T23:37:21.422Z,100.00
2023-05-05T23:39:49.144Z,100.00
2023-05-05T23:42:18.131Z,100.00
2023-05-05T23:44:45.809Z,100.00
2023-05-05T23:47:13.423Z,100.00
2023-05-05T23:49:41.009Z,100.00
2023-05-05T23:52:11.003Z,100.00
2023-05-05T23:54:38.575Z,100.00
2023-05-05T23:57:06.194Z,100.00
2023-05-05T23:59:33.764Z,100.00
